sensor_id;sensor_type;location;lat;lon;timestamp;P1;durP1;ratioP1;P2;durP2;ratioP2
2011;SDS011;1009;51.436;6.972;2024-03-23T00:51:45;16.37;;;7.60;;
2011;SDS011;1009;51.436;6.972;2024-03-23T00:54:13;16.27;;;7.20;;
2011;SDS011;1009;51.436;6.972;2024-03-23T00:56:38;16.60;;;7.30;;
2011;SDS011;1009;51.436;6.972;2024-03-23T00:59:05;24.67;;;8.20;;
2011;SDS011;1009;51.436;6.972;2024-03-23T01:01:31;16.63;;;7.63;;
2011;SDS011;1009;51.436;6.972;2024-03-23T01:03:57;16.77;;;8.60;;
2011;SDS011;1009;51.436;6.972;2024-03-23T01:06:24;13.60;;;7.13;;
2011;SDS011;1009;51.436;6.972;2024-03-23T01:08:52;15.93;;;6.20;;
2011;SDS011;1009;51.436;6.972;2024-03-23T01:11:18;12.20;;;6.03;;
2011;SDS011;1009;51.436;6.972;2024-03-23T01:13:44;14.33;;;5.10;;
2011;SDS011;1009;51.436;6.972;2024-03-23T01:16:10;13.20;;;5.00;;
2011;SDS011;1009;51.436;6.972;2024-03-23T01:18:37;11.50;;;5.03;;
2011;SDS011;1009;51.436;6.972;2024-03-23T01:21:03;12.70;;;5.37;;
2011;SDS011;1009;51.436;6.972;2024-03-23T01:23:30;9.63;;;4.50;;
2011;SDS011;1009;51.436;6.972;2024-03-23T01:25:57;9.80;;;3.60;;
2011;SDS011;1009;51.436;6.972;2024-03-23T01:28:24;12.30;;;4.10;;
2011;SDS011;1009;51.436;6.972;2024-03-23T01:30:49;6.97;;;3.20;;
2011;SDS011;1009;51.436;6.972;2024-03-23T01:33:16;6.23;;;2.53;;
2011;SDS011;1009;51.436;6.972;2024-03-23T01:35:42;15.07;;;2.77;;
2011;SDS011;1009;51.436;6.972;2024-03-23T01:38:09;7.30;;;2.70;;
2011;SDS011;1009;51.436;6.972;2024-03-23T01:40:34;4.00;;;2.40;;
2011;SDS011;1009;51.436;6.972;2024-03-23T01:43:03;6.60;;;2.77;;
2011;SDS011;1009;51.436;6.972;2024-03-23T01:45:30;4.67;;;2.07;;
2011;SDS011;1009;51.436;6.972;2024-03-23T01:47:57;4.90;;;2.77;;
2011;SDS011;1009;51.436;6.972;2024-03-23T01:50:24;11.63;;;2.37;;
2011;SDS011;1009;51.436;6.972;2024-03-23T01:52:51;5.40;;;2.63;;
2011;SDS011;1009;51.436;6.972;2024-03-23T01:55:17;6.13;;;2.47;;
2011;SDS011;1009;51.436;6.972;2024-03-23T01:57:44;9.17;;;2.47;;
2011;SDS011;1009;51.436;6.972;2024-03-23T02:00:11;5.57;;;1.80;;
2011;SDS011;1009;51.436;6.972;2024-03-23T02:02:43;5.43;;;1.73;;
2011;SDS011;1009;51.436;6.972;2024-03-23T02:05:09;3.77;;;1.80;;
2011;SDS011;1009;51.436;6.972;2024-03-23T02:07:36;6.13;;;1.80;;
2011;SDS011;1009;51.436;6.972;2024-03-23T02:10:03;5.00;;;1.73;;
2011;SDS011;1009;51.436;6.972;2024-03-23T02:12:30;9.27;;;2.63;;
2011;SDS011;1009;51.436;6.972;2024-03-23T02:14:56;7.70;;;2.50;;
2011;SDS011;1009;51.436;6.972;2024-03-23T02:17:24;10.00;;;2.83;;
2011;SDS011;1009;51.436;6.972;2024-03-23T02:19:50;9.93;;;2.13;;
2011;SDS011;1009;51.436;6.972;2024-03-23T02:22:17;7.27;;;3.30;;
2011;SDS011;1009;51.436;6.972;2024-03-23T02:24:44;8.40;;;2.20;;
2011;SDS011;1009;51.436;6.972;2024-03-23T02:27:11;7.10;;;2.70;;
2011;SDS011;1009;51.436;6.972;2024-03-23T02:29:37;6.93;;;2.40;;
2011;SDS011;1009;51.436;6.972;2024-03-23T02:32:04;7.17;;;2.30;;
2011;SDS011;1009;51.436;6.972;2024-03-23T02:34:30;7.50;;;2.53;;
2011;SDS011;1009;51.436;6.972;2024-03-23T02:36:57;6.17;;;2.40;;
2011;SDS011;1009;51.436;6.972;2024-03-23T02:39:23;6.63;;;2.97;;
2011;SDS011;1009;51.436;6.972;2024-03-23T02:41:51;9.97;;;2.87;;
2011;SDS011;1009;51.436;6.972;2024-03-23T02:44:16;6.10;;;2.30;;
2011;SDS011;1009;51.436;6.972;2024-03-23T02:46:43;9.03;;;3.47;;
2011;SDS011;1009;51.436;6.972;2024-03-23T02:49:09;6.80;;;2.60;;
2011;SDS011;1009;51.436;6.972;2024-03-23T02:51:36;5.10;;;2.03;;
2011;SDS011;1009;51.436;6.972;2024-03-23T02:54:01;8.27;;;3.00;;
2011;SDS011;1009;51.436;6.972;2024-03-23T02:56:28;8.90;;;2.90;;
2011;SDS011;1009;51.436;6.972;2024-03-23T02:58:56;4.87;;;2.20;;
2011;SDS011;1009;51.436;6.972;2024-03-23T03:01:22;9.30;;;2.90;;
2011;SDS011;1009;51.436;6.972;2024-03-23T03:03:48;9.23;;;3.73;;
2011;SDS011;1009;51.436;6.972;2024-03-23T03:06:22;7.83;;;2.90;;
2011;SDS011;1009;51.436;6.972;2024-03-23T03:08:48;3.83;;;2.87;;
2011;SDS011;1009;51.436;6.972;2024-03-23T03:11:15;3.63;;;2.67;;
2011;SDS011;1009;51.436;6.972;2024-03-23T03:13:41;7.23;;;3.27;;
2011;SDS011;1009;51.436;6.972;2024-03-23T03:16:09;5.10;;;2.50;;
2011;SDS011;1009;51.436;6.972;2024-03-23T03:18:35;5.93;;;2.23;;
2011;SDS011;1009;51.436;6.972;2024-03-23T03:21:02;7.27;;;2.97;;
2011;SDS011;1009;51.436;6.972;2024-03-23T03:23:30;4.50;;;2.70;;
2011;SDS011;1009;51.436;6.972;2024-03-23T03:25:56;8.60;;;2.83;;
2011;SDS011;1009;51.436;6.972;2024-03-23T03:28:23;6.23;;;2.30;;
2011;SDS011;1009;51.436;6.972;2024-03-23T03:30:51;6.30;;;2.30;;
2011;SDS011;1009;51.436;6.972;2024-03-23T03:33:18;5.10;;;2.50;;
2011;SDS011;1009;51.436;6.972;2024-03-23T03:35:45;8.90;;;3.23;;
2011;SDS011;1009;51.436;6.972;2024-03-23T03:38:11;4.90;;;2.03;;
2011;SDS011;1009;51.436;6.972;2024-03-23T03:40:37;3.03;;;1.67;;
2011;SDS011;1009;51.436;6.972;2024-03-23T03:43:03;5.30;;;2.30;;
2011;SDS011;1009;51.436;6.972;2024-03-23T03:45:30;6.57;;;2.67;;
2011;SDS011;1009;51.436;6.972;2024-03-23T03:47:56;4.50;;;2.33;;
2011;SDS011;1009;51.436;6.972;2024-03-23T03:50:25;9.97;;;3.80;;
2011;SDS011;1009;51.436;6.972;2024-03-23T03:52:51;12.03;;;3.90;;
2011;SDS011;1009;51.436;6.972;2024-03-23T03:55:18;8.67;;;3.30;;
2011;SDS011;1009;51.436;6.972;2024-03-23T03:57:43;6.83;;;3.80;;
2011;SDS011;1009;51.436;6.972;2024-03-23T04:00:10;7.23;;;3.47;;
2011;SDS011;1009;51.436;6.972;2024-03-23T04:02:37;8.33;;;3.50;;
2011;SDS011;1009;51.436;6.972;2024-03-23T04:05:04;7.73;;;4.00;;
2011;SDS011;1009;51.436;6.972;2024-03-23T04:07:31;8.17;;;4.10;;
2011;SDS011;1009;51.436;6.972;2024-03-23T04:09:58;9.20;;;4.33;;
2011;SDS011;1009;51.436;6.972;2024-03-23T04:12:24;6.50;;;4.03;;
2011;SDS011;1009;51.436;6.972;2024-03-23T04:14:51;10.87;;;4.70;;
2011;SDS011;1009;51.436;6.972;2024-03-23T04:17:16;12.47;;;6.17;;
2011;SDS011;1009;51.436;6.972;2024-03-23T04:19:43;7.97;;;3.40;;
2011;SDS011;1009;51.436;6.972;2024-03-23T04:22:09;9.47;;;3.37;;
2011;SDS011;1009;51.436;6.972;2024-03-23T04:24:37;5.90;;;3.47;;
2011;SDS011;1009;51.436;6.972;2024-03-23T04:27:03;8.07;;;3.60;;
2011;SDS011;1009;51.436;6.972;2024-03-23T04:29:30;7.77;;;3.63;;
2011;SDS011;1009;51.436;6.972;2024-03-23T04:31:56;7.43;;;3.00;;
2011;SDS011;1009;51.436;6.972;2024-03-23T04:34:23;11.23;;;3.80;;
2011;SDS011;1009;51.436;6.972;2024-03-23T04:36:49;7.10;;;3.30;;
2011;SDS011;1009;51.436;6.972;2024-03-23T04:39:15;4.80;;;3.60;;
2011;SDS011;1009;51.436;6.972;2024-03-23T04:41:44;7.43;;;4.50;;
2011;SDS011;1009;51.436;6.972;2024-03-23T04:44:10;6.30;;;3.20;;
2011;SDS011;1009;51.436;6.972;2024-03-23T04:46:37;7.80;;;3.20;;
2011;SDS011;1009;51.436;6.972;2024-03-23T04:49:04;10.37;;;3.60;;
2011;SDS011;1009;51.436;6.972;2024-03-23T04:51:35;7.57;;;3.27;;
2011;SDS011;1009;51.436;6.972;2024-03-23T04:54:03;8.93;;;4.40;;
2011;SDS011;1009;51.436;6.972;2024-03-23T04:56:30;10.53;;;4.57;;
2011;SDS011;1009;51.436;6.972;2024-03-23T04:58:59;11.90;;;4.33;;
2011;SDS011;1009;51.436;6.972;2024-03-23T05:01:26;12.60;;;4.80;;
2011;SDS011;1009;51.436;6.972;2024-03-23T05:03:53;13.73;;;5.03;;
2011;SDS011;1009;51.436;6.972;2024-03-23T05:06:19;13.93;;;5.63;;
2011;SDS011;1009;51.436;6.972;2024-03-23T05:08:45;12.50;;;6.30;;
2011;SDS011;1009;51.436;6.972;2024-03-23T05:11:11;12.83;;;6.63;;
2011;SDS011;1009;51.436;6.972;2024-03-23T05:13:38;10.67;;;6.77;;
2011;SDS011;1009;51.436;6.972;2024-03-23T05:16:05;16.40;;;8.00;;
2011;SDS011;1009;51.436;6.972;2024-03-23T05:18:33;15.17;;;7.27;;
2011;SDS011;1009;51.436;6.972;2024-03-23T05:20:59;14.10;;;8.00;;
2011;SDS011;1009;51.436;6.972;2024-03-23T05:23:27;15.60;;;7.60;;
2011;SDS011;1009;51.436;6.972;2024-03-23T05:25:53;9.20;;;6.70;;
2011;SDS011;1009;51.436;6.972;2024-03-23T05:28:20;11.80;;;7.00;;
2011;SDS011;1009;51.436;6.972;2024-03-23T05:30:49;14.67;;;8.33;;
2011;SDS011;1009;51.436;6.972;2024-03-23T05:33:17;12.03;;;6.13;;
2011;SDS011;1009;51.436;6.972;2024-03-23T05:35:44;10.10;;;6.40;;
2011;SDS011;1009;51.436;6.972;2024-03-23T05:38:09;11.27;;;6.80;;
2011;SDS011;1009;51.436;6.972;2024-03-23T05:40:36;12.70;;;6.73;;
2011;SDS011;1009;51.436;6.972;2024-03-23T05:43:05;14.40;;;8.07;;
2011;SDS011;1009;51.436;6.972;2024-03-23T05:45:32;17.63;;;7.93;;
2011;SDS011;1009;51.436;6.972;2024-03-23T05:47:58;13.90;;;6.93;;
2011;SDS011;1009;51.436;6.972;2024-03-23T05:50:26;14.10;;;6.90;;
2011;SDS011;1009;51.436;6.972;2024-03-23T05:52:52;8.30;;;6.10;;
2011;SDS011;1009;51.436;6.972;2024-03-23T05:55:18;14.93;;;6.97;;
2011;SDS011;1009;51.436;6.972;2024-03-23T05:57:44;15.20;;;7.47;;
2011;SDS011;1009;51.436;6.972;2024-03-23T06:00:11;12.57;;;6.93;;
2011;SDS011;1009;51.436;6.972;2024-03-23T06:02:41;17.90;;;8.90;;
2011;SDS011;1009;51.436;6.972;2024-03-23T06:05:09;16.60;;;7.50;;
2011;SDS011;1009;51.436;6.972;2024-03-23T06:07:36;13.10;;;7.33;;
2011;SDS011;1009;51.436;6.972;2024-03-23T06:10:03;17.90;;;8.03;;
2011;SDS011;1009;51.436;6.972;2024-03-23T06:12:30;17.37;;;8.97;;
2011;SDS011;1009;51.436;6.972;2024-03-23T06:14:57;18.30;;;7.77;;
2011;SDS011;1009;51.436;6.972;2024-03-23T06:17:23;12.87;;;8.73;;
2011;SDS011;1009;51.436;6.972;2024-03-23T06:19:49;14.20;;;8.47;;
2011;SDS011;1009;51.436;6.972;2024-03-23T06:22:15;15.20;;;7.80;;
2011;SDS011;1009;51.436;6.972;2024-03-23T06:24:43;18.83;;;9.50;;
2011;SDS011;1009;51.436;6.972;2024-03-23T06:27:09;18.00;;;9.00;;
2011;SDS011;1009;51.436;6.972;2024-03-23T06:29:36;14.83;;;9.67;;
2011;SDS011;1009;51.436;6.972;2024-03-23T06:32:02;17.90;;;9.83;;
2011;SDS011;1009;51.436;6.972;2024-03-23T06:34:29;16.87;;;9.37;;
2011;SDS011;1009;51.436;6.972;2024-03-23T06:36:55;21.23;;;10.87;;
2011;SDS011;1009;51.436;6.972;2024-03-23T06:39:22;17.97;;;12.03;;
2011;SDS011;1009;51.436;6.972;2024-03-23T06:41:52;23.00;;;12.00;;
2011;SDS011;1009;51.436;6.972;2024-03-23T06:44:20;22.47;;;12.47;;
2011;SDS011;1009;51.436;6.972;2024-03-23T06:46:46;20.60;;;12.33;;
2011;SDS011;1009;51.436;6.972;2024-03-23T06:49:13;17.83;;;12.90;;
2011;SDS011;1009;51.436;6.972;2024-03-23T06:51:40;21.70;;;13.43;;
2011;SDS011;1009;51.436;6.972;2024-03-23T06:54:06;22.53;;;14.33;;
2011;SDS011;1009;51.436;6.972;2024-03-23T06:56:32;21.93;;;13.37;;
2011;SDS011;1009;51.436;6.972;2024-03-23T06:59:00;23.17;;;12.97;;
2011;SDS011;1009;51.436;6.972;2024-03-23T07:01:26;24.33;;;13.77;;
2011;SDS011;1009;51.436;6.972;2024-03-23T07:03:53;21.30;;;12.97;;
2011;SDS011;1009;51.436;6.972;2024-03-23T07:06:19;21.23;;;13.33;;
2011;SDS011;1009;51.436;6.972;2024-03-23T07:08:46;27.43;;;12.50;;
2011;SDS011;1009;51.436;6.972;2024-03-23T07:11:12;26.03;;;13.13;;
2011;SDS011;1009;51.436;6.972;2024-03-23T07:13:44;25.10;;;13.90;;
2011;SDS011;1009;51.436;6.972;2024-03-23T07:16:12;21.83;;;12.40;;
2011;SDS011;1009;51.436;6.972;2024-03-23T07:18:39;22.10;;;12.67;;
2011;SDS011;1009;51.436;6.972;2024-03-23T07:21:05;22.67;;;13.37;;
2011;SDS011;1009;51.436;6.972;2024-03-23T07:23:32;22.97;;;11.83;;
2011;SDS011;1009;51.436;6.972;2024-03-23T07:25:58;30.87;;;13.90;;
2011;SDS011;1009;51.436;6.972;2024-03-23T07:28:25;19.90;;;12.33;;
2011;SDS011;1009;51.436;6.972;2024-03-23T07:33:36;19.50;;;12.30;;
2011;SDS011;1009;51.436;6.972;2024-03-23T07:36:03;19.23;;;12.23;;
2011;SDS011;1009;51.436;6.972;2024-03-23T07:38:30;22.13;;;12.17;;
2011;SDS011;1009;51.436;6.972;2024-03-23T07:41:03;24.80;;;12.20;;
2011;SDS011;1009;51.436;6.972;2024-03-23T07:43:30;20.53;;;11.63;;
2011;SDS011;1009;51.436;6.972;2024-03-23T07:45:56;18.80;;;10.70;;
2011;SDS011;1009;51.436;6.972;2024-03-23T07:48:23;22.80;;;10.43;;
2011;SDS011;1009;51.436;6.972;2024-03-23T07:50:57;22.37;;;11.50;;
2011;SDS011;1009;51.436;6.972;2024-03-23T07:53:27;19.70;;;9.27;;
2011;SDS011;1009;51.436;6.972;2024-03-23T07:55:57;20.67;;;8.57;;
2011;SDS011;1009;51.436;6.972;2024-03-23T07:58:24;15.67;;;9.37;;
2011;SDS011;1009;51.436;6.972;2024-03-23T08:00:50;13.07;;;8.70;;
2011;SDS011;1009;51.436;6.972;2024-03-23T08:03:17;14.63;;;7.70;;
2011;SDS011;1009;51.436;6.972;2024-03-23T08:05:42;14.90;;;6.87;;
2011;SDS011;1009;51.436;6.972;2024-03-23T08:08:11;12.60;;;8.00;;
2011;SDS011;1009;51.436;6.972;2024-03-23T08:10:37;11.50;;;8.03;;
2011;SDS011;1009;51.436;6.972;2024-03-23T08:13:03;9.97;;;6.53;;
2011;SDS011;1009;51.436;6.972;2024-03-23T08:15:31;14.77;;;6.80;;
2011;SDS011;1009;51.436;6.972;2024-03-23T08:17:59;10.63;;;5.90;;
2011;SDS011;1009;51.436;6.972;2024-03-23T08:20:25;11.30;;;6.60;;
2011;SDS011;1009;51.436;6.972;2024-03-23T08:22:52;17.47;;;6.40;;
2011;SDS011;1009;51.436;6.972;2024-03-23T08:25:19;12.97;;;5.53;;
2011;SDS011;1009;51.436;6.972;2024-03-23T08:27:45;12.27;;;5.10;;
2011;SDS011;1009;51.436;6.972;2024-03-23T08:30:12;14.13;;;5.50;;
2011;SDS011;1009;51.436;6.972;2024-03-23T08:32:39;9.30;;;5.00;;
2011;SDS011;1009;51.436;6.972;2024-03-23T08:35:05;8.10;;;4.70;;
2011;SDS011;1009;51.436;6.972;2024-03-23T08:37:32;10.03;;;4.63;;
2011;SDS011;1009;51.436;6.972;2024-03-23T08:39:58;13.63;;;7.03;;
2011;SDS011;1009;51.436;6.972;2024-03-23T08:42:27;13.70;;;5.83;;
2011;SDS011;1009;51.436;6.972;2024-03-23T08:44:52;7.23;;;4.73;;
2011;SDS011;1009;51.436;6.972;2024-03-23T08:47:19;9.97;;;5.60;;
2011;SDS011;1009;51.436;6.972;2024-03-23T08:49:45;7.10;;;4.47;;
2011;SDS011;1009;51.436;6.972;2024-03-23T08:52:12;12.03;;;6.03;;
2011;SDS011;1009;51.436;6.972;2024-03-23T08:54:37;10.10;;;5.70;;
2011;SDS011;1009;51.436;6.972;2024-03-23T08:57:04;11.60;;;4.70;;
2011;SDS011;1009;51.436;6.972;2024-03-23T08:59:31;10.10;;;4.37;;
2011;SDS011;1009;51.436;6.972;2024-03-23T09:01:58;4.77;;;3.00;;
2011;SDS011;1009;51.436;6.972;2024-03-23T09:04:24;5.33;;;3.10;;
2011;SDS011;1009;51.436;6.972;2024-03-23T09:06:51;11.30;;;4.03;;
2011;SDS011;1009;51.436;6.972;2024-03-23T09:09:17;6.03;;;2.83;;
2011;SDS011;1009;51.436;6.972;2024-03-23T09:11:44;7.80;;;3.40;;
2011;SDS011;1009;51.436;6.972;2024-03-23T09:14:10;7.90;;;3.20;;
2011;SDS011;1009;51.436;6.972;2024-03-23T09:16:38;6.20;;;3.03;;
2011;SDS011;1009;51.436;6.972;2024-03-23T09:19:04;6.30;;;3.33;;
2011;SDS011;1009;51.436;6.972;2024-03-23T09:21:31;4.50;;;2.50;;
2011;SDS011;1009;51.436;6.972;2024-03-23T09:23:56;4.57;;;4.07;;
2011;SDS011;1009;51.436;6.972;2024-03-23T09:26:23;7.30;;;3.80;;
2011;SDS011;1009;51.436;6.972;2024-03-23T09:28:49;8.37;;;4.53;;
2011;SDS011;1009;51.436;6.972;2024-03-23T09:31:16;7.53;;;4.60;;
2011;SDS011;1009;51.436;6.972;2024-03-23T09:33:43;8.50;;;4.77;;
2011;SDS011;1009;51.436;6.972;2024-03-23T09:36:10;8.60;;;4.83;;
2011;SDS011;1009;51.436;6.972;2024-03-23T09:38:35;11.37;;;4.87;;
2011;SDS011;1009;51.436;6.972;2024-03-23T09:41:06;9.67;;;5.23;;
2011;SDS011;1009;51.436;6.972;2024-03-23T09:43:33;9.17;;;5.20;;
2011;SDS011;1009;51.436;6.972;2024-03-23T09:46:01;7.07;;;5.07;;
2011;SDS011;1009;51.436;6.972;2024-03-23T09:48:27;5.73;;;4.20;;
2011;SDS011;1009;51.436;6.972;2024-03-23T09:50:55;7.43;;;5.20;;
2011;SDS011;1009;51.436;6.972;2024-03-23T09:53:21;7.43;;;4.40;;
2011;SDS011;1009;51.436;6.972;2024-03-23T09:55:48;10.63;;;5.10;;
2011;SDS011;1009;51.436;6.972;2024-03-23T09:58:15;11.27;;;4.60;;
2011;SDS011;1009;51.436;6.972;2024-03-23T10:00:42;8.70;;;4.97;;
2011;SDS011;1009;51.436;6.972;2024-03-23T10:03:08;9.97;;;4.70;;
2011;SDS011;1009;51.436;6.972;2024-03-23T10:05:36;8.80;;;4.03;;
2011;SDS011;1009;51.436;6.972;2024-03-23T10:08:16;9.40;;;3.07;;
2011;SDS011;1009;51.436;6.972;2024-03-23T10:10:44;2.53;;;1.97;;
2011;SDS011;1009;51.436;6.972;2024-03-23T10:13:11;7.93;;;1.93;;
2011;SDS011;1009;51.436;6.972;2024-03-23T10:15:50;3.03;;;2.10;;
2011;SDS011;1009;51.436;6.972;2024-03-23T10:18:21;4.20;;;1.40;;
2011;SDS011;1009;51.436;6.972;2024-03-23T10:20:50;5.43;;;2.20;;
2011;SDS011;1009;51.436;6.972;2024-03-23T10:23:18;4.33;;;1.60;;
2011;SDS011;1009;51.436;6.972;2024-03-23T10:25:45;4.50;;;1.83;;
2011;SDS011;1009;51.436;6.972;2024-03-23T10:28:11;6.47;;;1.80;;
2011;SDS011;1009;51.436;6.972;2024-03-23T10:30:38;7.53;;;1.67;;
2011;SDS011;1009;51.436;6.972;2024-03-23T10:33:07;6.87;;;2.10;;
2011;SDS011;1009;51.436;6.972;2024-03-23T10:35:34;6.53;;;1.80;;
2011;SDS011;1009;51.436;6.972;2024-03-23T10:38:02;6.30;;;2.63;;
2011;SDS011;1009;51.436;6.972;2024-03-23T10:40:32;8.33;;;2.83;;
2011;SDS011;1009;51.436;6.972;2024-03-23T10:43:00;7.00;;;2.43;;
2011;SDS011;1009;51.436;6.972;2024-03-23T10:45:28;5.90;;;2.60;;
2011;SDS011;1009;51.436;6.972;2024-03-23T10:47:54;3.43;;;1.57;;
2011;SDS011;1009;51.436;6.972;2024-03-23T10:50:21;2.90;;;1.10;;
2011;SDS011;1009;51.436;6.972;2024-03-23T10:52:47;1.10;;;1.00;;
2011;SDS011;1009;51.436;6.972;2024-03-23T10:55:15;2.93;;;0.57;;
2011;SDS011;1009;51.436;6.972;2024-03-23T10:57:45;1.20;;;0.97;;
2011;SDS011;1009;51.436;6.972;2024-03-23T11:00:16;2.27;;;0.67;;
2011;SDS011;1009;51.436;6.972;2024-03-23T11:02:43;1.70;;;0.70;;
2011;SDS011;1009;51.436;6.972;2024-03-23T11:05:28;2.10;;;0.90;;
2011;SDS011;1009;51.436;6.972;2024-03-23T11:07:54;2.63;;;0.80;;
2011;SDS011;1009;51.436;6.972;2024-03-23T11:10:25;1.83;;;1.00;;
2011;SDS011;1009;51.436;6.972;2024-03-23T11:12:53;1.47;;;1.20;;
2011;SDS011;1009;51.436;6.972;2024-03-23T11:15:20;2.70;;;1.60;;
2011;SDS011;1009;51.436;6.972;2024-03-23T11:20:33;5.23;;;1.47;;
2011;SDS011;1009;51.436;6.972;2024-03-23T11:22:59;2.30;;;1.10;;
2011;SDS011;1009;51.436;6.972;2024-03-23T11:25:27;4.53;;;1.73;;
2011;SDS011;1009;51.436;6.972;2024-03-23T11:27:55;3.80;;;2.10;;
2011;SDS011;1009;51.436;6.972;2024-03-23T11:30:23;4.13;;;2.23;;
2011;SDS011;1009;51.436;6.972;2024-03-23T11:32:50;2.90;;;1.43;;
2011;SDS011;1009;51.436;6.972;2024-03-23T11:35:25;4.90;;;1.90;;
2011;SDS011;1009;51.436;6.972;2024-03-23T11:38:02;3.57;;;1.70;;
2011;SDS011;1009;51.436;6.972;2024-03-23T11:40:29;5.43;;;2.10;;
2011;SDS011;1009;51.436;6.972;2024-03-23T11:42:57;6.90;;;2.70;;
2011;SDS011;1009;51.436;6.972;2024-03-23T11:45:24;3.67;;;2.40;;
2011;SDS011;1009;51.436;6.972;2024-03-23T11:48:01;4.53;;;2.63;;
2011;SDS011;1009;51.436;6.972;2024-03-23T11:50:29;4.67;;;2.70;;
2011;SDS011;1009;51.436;6.972;2024-03-23T11:53:05;6.80;;;2.40;;
2011;SDS011;1009;51.436;6.972;2024-03-23T11:55:44;3.67;;;1.90;;
2011;SDS011;1009;51.436;6.972;2024-03-23T11:58:12;3.43;;;1.57;;
2011;SDS011;1009;51.436;6.972;2024-03-23T12:00:40;3.23;;;1.67;;
2011;SDS011;1009;51.436;6.972;2024-03-23T12:03:06;2.60;;;1.27;;
2011;SDS011;1009;51.436;6.972;2024-03-23T12:05:34;3.67;;;1.27;;
2011;SDS011;1009;51.436;6.972;2024-03-23T12:08:15;2.20;;;0.90;;
2011;SDS011;1009;51.436;6.972;2024-03-23T12:10:44;3.63;;;1.30;;
2011;SDS011;1009;51.436;6.972;2024-03-23T12:13:15;1.43;;;1.10;;
2011;SDS011;1009;51.436;6.972;2024-03-23T12:15:43;3.90;;;1.20;;
2011;SDS011;1009;51.436;6.972;2024-03-23T12:18:10;4.10;;;1.77;;
2011;SDS011;1009;51.436;6.972;2024-03-23T12:20:37;2.90;;;1.30;;
2011;SDS011;1009;51.436;6.972;2024-03-23T12:23:07;5.20;;;1.50;;
2011;SDS011;1009;51.436;6.972;2024-03-23T12:25:35;1.93;;;1.70;;
2011;SDS011;1009;51.436;6.972;2024-03-23T12:28:01;3.30;;;1.57;;
2011;SDS011;1009;51.436;6.972;2024-03-23T12:30:29;7.17;;;2.40;;
2011;SDS011;1009;51.436;6.972;2024-03-23T12:32:55;3.40;;;2.00;;
2011;SDS011;1009;51.436;6.972;2024-03-23T12:35:22;2.80;;;1.57;;
2011;SDS011;1009;51.436;6.972;2024-03-23T12:37:47;4.57;;;1.80;;
2011;SDS011;1009;51.436;6.972;2024-03-23T12:40:14;2.73;;;1.60;;
2011;SDS011;1009;51.436;6.972;2024-03-23T12:42:40;2.97;;;1.93;;
2011;SDS011;1009;51.436;6.972;2024-03-23T12:45:07;4.80;;;2.30;;
2011;SDS011;1009;51.436;6.972;2024-03-23T12:47:35;6.47;;;2.50;;
2011;SDS011;1009;51.436;6.972;2024-03-23T12:50:01;3.90;;;2.50;;
2011;SDS011;1009;51.436;6.972;2024-03-23T12:52:28;6.67;;;2.40;;
2011;SDS011;1009;51.436;6.972;2024-03-23T12:54:55;5.43;;;2.00;;
2011;SDS011;1009;51.436;6.972;2024-03-23T12:57:21;3.40;;;1.73;;
2011;SDS011;1009;51.436;6.972;2024-03-23T12:59:49;4.87;;;2.30;;
2011;SDS011;1009;51.436;6.972;2024-03-23T13:02:16;3.30;;;1.90;;
2011;SDS011;1009;51.436;6.972;2024-03-23T13:04:45;4.80;;;2.37;;
2011;SDS011;1009;51.436;6.972;2024-03-23T13:07:12;4.27;;;2.00;;
2011;SDS011;1009;51.436;6.972;2024-03-23T13:09:38;2.27;;;1.63;;
2011;SDS011;1009;51.436;6.972;2024-03-23T13:12:05;4.43;;;1.97;;
2011;SDS011;1009;51.436;6.972;2024-03-23T13:14:31;2.87;;;1.50;;
2011;SDS011;1009;51.436;6.972;2024-03-23T13:16:58;2.97;;;1.40;;
2011;SDS011;1009;51.436;6.972;2024-03-23T13:19:24;1.30;;;0.90;;
2011;SDS011;1009;51.436;6.972;2024-03-23T13:21:53;1.97;;;1.13;;
2011;SDS011;1009;51.436;6.972;2024-03-23T13:24:21;3.30;;;1.40;;
2011;SDS011;1009;51.436;6.972;2024-03-23T13:26:49;1.50;;;1.40;;
2011;SDS011;1009;51.436;6.972;2024-03-23T13:29:15;2.73;;;1.60;;
2011;SDS011;1009;51.436;6.972;2024-03-23T13:31:42;3.57;;;2.00;;
2011;SDS011;1009;51.436;6.972;2024-03-23T13:34:08;3.57;;;1.43;;
2011;SDS011;1009;51.436;6.972;2024-03-23T13:36:35;3.00;;;1.60;;
2011;SDS011;1009;51.436;6.972;2024-03-23T13:39:02;5.40;;;1.83;;
2011;SDS011;1009;51.436;6.972;2024-03-23T13:41:31;2.97;;;1.63;;
2011;SDS011;1009;51.436;6.972;2024-03-23T13:43:57;4.53;;;1.43;;
2011;SDS011;1009;51.436;6.972;2024-03-23T13:46:24;2.57;;;1.60;;
2011;SDS011;1009;51.436;6.972;2024-03-23T13:48:49;3.03;;;1.30;;
2011;SDS011;1009;51.436;6.972;2024-03-23T13:51:22;2.60;;;1.30;;
2011;SDS011;1009;51.436;6.972;2024-03-23T13:53:49;2.33;;;1.00;;
2011;SDS011;1009;51.436;6.972;2024-03-23T13:56:17;3.37;;;1.67;;
2011;SDS011;1009;51.436;6.972;2024-03-23T13:58:43;1.43;;;0.80;;
2011;SDS011;1009;51.436;6.972;2024-03-23T14:01:12;1.90;;;1.20;;
2011;SDS011;1009;51.436;6.972;2024-03-23T14:03:41;2.40;;;0.90;;
2011;SDS011;1009;51.436;6.972;2024-03-23T14:06:08;1.47;;;0.70;;
2011;SDS011;1009;51.436;6.972;2024-03-23T14:08:35;3.33;;;1.20;;
2011;SDS011;1009;51.436;6.972;2024-03-23T14:11:04;4.10;;;1.40;;
2011;SDS011;1009;51.436;6.972;2024-03-23T14:13:32;1.43;;;0.87;;
2011;SDS011;1009;51.436;6.972;2024-03-23T14:15:59;1.03;;;0.70;;
2011;SDS011;1009;51.436;6.972;2024-03-23T14:18:25;4.00;;;1.03;;
2011;SDS011;1009;51.436;6.972;2024-03-23T14:20:52;1.53;;;0.67;;
2011;SDS011;1009;51.436;6.972;2024-03-23T14:23:23;4.47;;;1.47;;
2011;SDS011;1009;51.436;6.972;2024-03-23T14:25:52;1.40;;;0.60;;
2011;SDS011;1009;51.436;6.972;2024-03-23T14:28:19;4.70;;;0.60;;
2011;SDS011;1009;51.436;6.972;2024-03-23T14:30:48;2.27;;;0.60;;
2011;SDS011;1009;51.436;6.972;2024-03-23T14:33:14;1.47;;;0.93;;
2011;SDS011;1009;51.436;6.972;2024-03-23T14:35:41;3.93;;;1.20;;
2011;SDS011;1009;51.436;6.972;2024-03-23T14:38:07;1.30;;;1.00;;
2011;SDS011;1009;51.436;6.972;2024-03-23T14:40:34;2.47;;;1.10;;
2011;SDS011;1009;51.436;6.972;2024-03-23T14:43:00;4.33;;;2.53;;
2011;SDS011;1009;51.436;6.972;2024-03-23T14:45:27;1.90;;;0.93;;
2011;SDS011;1009;51.436;6.972;2024-03-23T14:47:54;4.17;;;1.50;;
2011;SDS011;1009;51.436;6.972;2024-03-23T14:50:23;1.97;;;0.87;;
2011;SDS011;1009;51.436;6.972;2024-03-23T14:52:49;6.23;;;1.13;;
2011;SDS011;1009;51.436;6.972;2024-03-23T14:55:16;5.33;;;1.23;;
2011;SDS011;1009;51.436;6.972;2024-03-23T14:57:42;2.97;;;1.10;;
2011;SDS011;1009;51.436;6.972;2024-03-23T15:00:10;5.20;;;1.47;;
2011;SDS011;1009;51.436;6.972;2024-03-23T15:02:37;1.50;;;0.80;;
2011;SDS011;1009;51.436;6.972;2024-03-23T15:05:06;2.73;;;1.13;;
2011;SDS011;1009;51.436;6.972;2024-03-23T15:07:34;2.50;;;1.60;;
2011;SDS011;1009;51.436;6.972;2024-03-23T15:10:01;1.50;;;1.10;;
2011;SDS011;1009;51.436;6.972;2024-03-23T15:12:29;1.70;;;1.17;;
2011;SDS011;1009;51.436;6.972;2024-03-23T15:14:57;1.63;;;1.30;;
2011;SDS011;1009;51.436;6.972;2024-03-23T15:17:23;2.03;;;1.30;;
2011;SDS011;1009;51.436;6.972;2024-03-23T15:19:50;7.70;;;2.27;;
2011;SDS011;1009;51.436;6.972;2024-03-23T15:22:19;2.50;;;1.77;;
2011;SDS011;1009;51.436;6.972;2024-03-23T15:24:46;3.57;;;1.60;;
2011;SDS011;1009;51.436;6.972;2024-03-23T15:27:12;3.80;;;1.20;;
2011;SDS011;1009;51.436;6.972;2024-03-23T15:29:39;5.30;;;1.40;;
2011;SDS011;1009;51.436;6.972;2024-03-23T15:32:05;2.60;;;1.20;;
2011;SDS011;1009;51.436;6.972;2024-03-23T15:34:32;4.90;;;1.50;;
2011;SDS011;1009;51.436;6.972;2024-03-23T15:36:58;2.83;;;1.53;;
2011;SDS011;1009;51.436;6.972;2024-03-23T15:39:26;3.93;;;1.27;;
2011;SDS011;1009;51.436;6.972;2024-03-23T15:41:51;3.40;;;1.30;;
2011;SDS011;1009;51.436;6.972;2024-03-23T15:44:19;3.90;;;1.30;;
2011;SDS011;1009;51.436;6.972;2024-03-23T15:46:45;2.30;;;0.77;;
2011;SDS011;1009;51.436;6.972;2024-03-23T15:49:12;3.40;;;1.20;;
2011;SDS011;1009;51.436;6.972;2024-03-23T15:51:38;2.43;;;0.90;;
2011;SDS011;1009;51.436;6.972;2024-03-23T15:54:06;2.07;;;1.03;;
2011;SDS011;1009;51.436;6.972;2024-03-23T15:56:34;3.73;;;1.20;;
2011;SDS011;1009;51.436;6.972;2024-03-23T15:59:01;3.60;;;1.33;;
2011;SDS011;1009;51.436;6.972;2024-03-23T16:01:30;3.70;;;1.60;;
2011;SDS011;1009;51.436;6.972;2024-03-23T16:03:58;1.90;;;0.90;;
2011;SDS011;1009;51.436;6.972;2024-03-23T16:06:24;2.83;;;1.57;;